Airfield :
LOGIN :

Register | Disclaimer

   EN    FR    IT 

 










Legend :    VFR   Marginal VFR   IFR   Intensive IFR   Very Intensive IFR
Visi :
Ceiling :
>= 8 km
>= 3000ft
5 to 8 km
1000 to 3000 ft
1500m to 5 km
500 to 1000 ft
800 to 1500m
200 to 500 ft
< 800m
< 200 ft
Symbols :   Thunderstorms  Fog  Heavy snow  Heavy precipitations  Wind > 20 kt
SIGMETs :     Misc.  Thunderstorms  Icing  Turbulence  Mountain Waves  Volcanic Ashes






- Airport Elevation : 313 ft
- IATA code : LEH


LFOH - Le Havre Octeville

CURRENT METAR :
  • 022100Z AUTO 28013KT 9999 BKN018 BKN026 16/12 Q1018

EXPIRED METARs :
  • 022030Z AUTO 27013KT 240V300 9999 FEW018 15/12 Q1018
  • 022000Z AUTO 27012KT CAVOK 16/12 Q1017
  • 021930Z AUTO 27014KT 9999 ////// 16/12 Q1017
  • 021900Z AUTO 28010KT 9999 FEW028 16/13 Q1017
  • 021830Z AUTO 29010KT 260V320 CAVOK 16/13 Q1017

TAF TAF LFOH
Valid from the 02 at 12:00 until the 03 at 12:00 UTC


021100Z 0212/0312 25012KT 9999 BKN017
TEMPO 0212/0214 4000 SHRA BKN012TCU
BECMG 0223/0301 BKN010
BECMG 0307/0310 SCT020
ATIS : +33 2 35 54 64 93



MET'MAP, your aeronautical weather chart ! - Copyright ORBIFLY December 2007 - Disclaimer

ORBIFLY MET'MAP TEAM :

Programming & Development : Alexandra Zaïnal
Concept & original design : Baudouin d'Aumeries
Assistance for programming : Marc-Olivier Méhu
Technical & hardware support : Manuel Goepfert

Contact : metmap@orbifly.com




SOURCES & CREDITS :

   NOAA